createdAt,value
2018-06-16T00:01:44.020Z,98342.66
2018-06-16T00:04:12.757Z,98347.81
2018-06-16T00:06:41.424Z,98348.98
2018-06-16T00:09:10.596Z,98351.51
2018-06-16T00:11:39.475Z,98352.75
2018-06-16T00:14:08.382Z,98348.44
2018-06-16T00:16:37.168Z,98349.91
2018-06-16T00:19:05.887Z,98346.70
2018-06-16T00:21:34.585Z,98349.78
2018-06-16T00:24:03.290Z,98352.27
2018-06-16T00:26:31.997Z,98351.88
2018-06-16T00:29:00.798Z,98339.27
2018-06-16T00:31:29.501Z,98340.72
2018-06-16T00:33:58.244Z,98335.12
2018-06-16T00:36:26.880Z,98338.87
2018-06-16T00:38:55.811Z,98336.27
2018-06-16T00:41:24.537Z,98336.56
2018-06-16T00:43:53.355Z,98336.34
2018-06-16T00:46:22.069Z,98339.48
2018-06-16T00:48:50.937Z,98341.44
2018-06-16T00:51:19.646Z,98339.64
2018-06-16T00:53:48.388Z,98344.01
2018-06-16T00:56:17.095Z,98343.62
2018-06-16T00:58:45.790Z,98337.81
2018-06-16T01:01:14.490Z,98340.14
2018-06-16T01:03:43.298Z,98335.95
2018-06-16T01:06:11.957Z,98340.27
2018-06-16T01:08:40.758Z,98331.85
2018-06-16T01:11:09.367Z,98331.98
2018-06-16T01:13:38.023Z,98336.93
2018-06-16T01:16:06.768Z,98335.95
2018-06-16T01:18:35.420Z,98331.12
2018-06-16T01:21:04.185Z,98337.75
2018-06-16T01:23:32.936Z,98333.00
2018-06-16T01:26:01.827Z,98329.88
2018-06-16T01:28:30.479Z,98329.02
2018-06-16T01:30:59.205Z,98332.78
2018-06-16T01:33:27.876Z,98325.97
2018-06-16T01:35:56.594Z,98326.15
2018-06-16T01:38:25.224Z,98326.31
2018-06-16T01:40:53.939Z,98314.24
2018-06-16T01:43:22.719Z,98317.52
2018-06-16T01:45:52.250Z,98316.28
2018-06-16T01:48:20.930Z,98321.36
2018-06-16T01:50:49.668Z,98326.94
2018-06-16T01:53:18.381Z,98324.91
2018-06-16T01:55:47.095Z,98317.67
2018-06-16T01:58:15.782Z,98318.64
2018-06-16T02:00:44.549Z,98321.48
2018-06-16T02:03:13.302Z,98312.64
2018-06-16T02:05:42.025Z,98317.59
2018-06-16T02:08:10.718Z,98312.73
2018-06-16T02:10:40.599Z,98311.67
2018-06-16T02:13:09.278Z,98310.78
2018-06-16T02:15:38.028Z,98316.51
2018-06-16T02:18:06.735Z,98313.78
2018-06-16T02:20:35.541Z,98315.34
2018-06-16T02:23:04.512Z,98312.84
2018-06-16T02:25:33.199Z,98316.22
2018-06-16T02:28:01.836Z,98312.76
2018-06-16T02:30:30.564Z,98322.25
2018-06-16T02:32:59.214Z,98319.64
2018-06-16T02:35:27.983Z,98314.45
2018-06-16T02:37:56.914Z,98318.69
2018-06-16T02:40:25.628Z,98321.09
2018-06-16T02:42:54.432Z,98321.48
2018-06-16T02:45:23.305Z,98326.73
2018-06-16T02:47:51.944Z,98320.51
2018-06-16T02:50:20.668Z,98318.53
2018-06-16T02:52:49.299Z,98317.83
2018-06-16T02:55:18.147Z,98310.39
2018-06-16T02:57:46.881Z,98313.26
2018-06-16T03:00:15.663Z,98305.36
2018-06-16T03:02:44.429Z,98308.53
2018-06-16T03:05:13.152Z,98311.20
2018-06-16T03:07:42.088Z,98313.81
2018-06-16T03:10:10.749Z,98312.57
2018-06-16T03:12:39.386Z,98318.33
2018-06-16T03:15:08.180Z,98317.16
2018-06-16T03:17:36.947Z,98316.30
2018-06-16T03:20:06.222Z,98314.19
2018-06-16T03:22:35.044Z,98315.44
2018-06-16T03:25:03.734Z,98312.03
2018-06-16T03:27:32.388Z,98317.36
2018-06-16T03:30:01.097Z,98320.79
2018-06-16T03:32:29.733Z,98324.13
2018-06-16T03:34:58.510Z,98320.94
2018-06-16T03:37:27.206Z,98323.47
2018-06-16T03:39:56.062Z,98328.77
2018-06-16T03:42:24.709Z,98328.05
2018-06-16T03:44:53.794Z,98329.06
2018-06-16T03:47:22.920Z,98331.42
2018-06-16T03:49:51.717Z,98334.06
2018-06-16T03:52:20.364Z,98333.03
2018-06-16T03:54:49.085Z,98335.95
2018-06-16T03:57:18.046Z,98332.34
2018-06-16T03:59:48.519Z,98331.30
2018-06-16T04:02:17.682Z,98335.23
2018-06-16T04:04:46.496Z,98340.45
2018-06-16T04:07:16.423Z,98343.77
2018-06-16T04:09:45.132Z,98343.16
2018-06-16T04:12:13.993Z,98340.09
2018-06-16T04:14:42.923Z,98346.72
2018-06-16T04:17:25.798Z,98346.53
2018-06-16T04:19:54.650Z,98343.84
2018-06-16T04:22:23.322Z,98345.73
2018-06-16T04:24:52.058Z,98343.39
2018-06-16T04:27:20.950Z,98342.77
2018-06-16T04:29:49.735Z,98347.80
2018-06-16T04:32:18.553Z,98339.64
2018-06-16T04:34:47.567Z,98344.58
2018-06-16T04:37:16.302Z,98342.70
2018-06-16T04:39:45.715Z,98343.95
2018-06-16T04:42:14.321Z,98341.99
2018-06-16T04:44:43.007Z,98343.59
2018-06-16T04:47:11.711Z,98346.33
2018-06-16T04:49:40.412Z,98345.00
2018-06-16T04:52:09.048Z,98344.53
2018-06-16T04:54:37.983Z,98355.81
2018-06-16T04:57:07.748Z,98348.30
2018-06-16T04:59:36.474Z,98339.84
2018-06-16T05:02:05.771Z,98341.58
2018-06-16T05:04:34.597Z,98345.92
2018-06-16T05:07:03.572Z,98349.45
2018-06-16T05:09:32.474Z,98346.74
2018-06-16T05:12:01.270Z,98341.56
2018-06-16T05:14:30.378Z,98342.92
2018-06-16T05:16:59.462Z,98342.61
2018-06-16T05:19:28.312Z,98341.82
2018-06-16T05:21:57.142Z,98338.80
2018-06-16T05:24:25.841Z,98339.55
2018-06-16T05:26:55.306Z,98344.28
2018-06-16T05:29:24.389Z,98342.62
2018-06-16T05:31:53.309Z,98341.25
2018-06-16T05:34:22.033Z,98343.12
2018-06-16T05:36:50.899Z,98338.06
2018-06-16T05:43:28.840Z,98341.92
2018-06-16T05:45:57.661Z,98337.70
2018-06-16T05:48:26.457Z,98336.59
2018-06-16T05:50:55.496Z,98334.47
2018-06-16T05:53:24.260Z,98339.73
2018-06-16T05:55:54.172Z,98339.91
2018-06-16T05:58:22.875Z,98338.94
2018-06-16T06:00:51.609Z,98343.74
2018-06-16T06:03:20.466Z,98342.37
2018-06-16T06:05:49.197Z,98350.77
2018-06-16T06:08:18.107Z,98344.98
2018-06-16T06:10:46.754Z,98348.84
2018-06-16T06:13:15.517Z,98348.67
2018-06-16T06:15:44.293Z,98342.55
2018-06-16T06:18:13.067Z,98351.60
2018-06-16T06:20:41.810Z,98351.12
2018-06-16T06:23:10.504Z,98347.59
2018-06-16T06:25:39.232Z,98345.92
2018-06-16T06:28:07.900Z,98346.97
2018-06-16T06:30:36.490Z,98348.16
2018-06-16T06:33:05.194Z,98349.16
2018-06-16T06:35:33.977Z,98350.52
2018-06-16T06:38:02.791Z,98353.88
2018-06-16T06:40:31.443Z,98349.26
2018-06-16T06:43:00.330Z,98354.95
2018-06-16T06:45:29.174Z,98356.05
2018-06-16T06:47:57.757Z,98351.56
2018-06-16T06:50:28.697Z,98360.35
2018-06-16T06:52:57.380Z,98364.62
2018-06-16T06:55:26.022Z,98360.88
2018-06-16T06:57:54.803Z,98354.26
2018-06-16T07:00:23.571Z,98362.34
2018-06-16T07:02:52.248Z,98355.98
2018-06-16T07:05:20.991Z,98349.70
2018-06-16T07:07:49.606Z,98348.83
2018-06-16T07:10:18.355Z,98346.89
2018-06-16T07:12:46.968Z,98347.97
2018-06-16T07:15:15.752Z,98345.31
2018-06-16T07:17:45.091Z,98349.23
2018-06-16T07:20:14.051Z,98345.89
2018-06-16T07:22:42.675Z,98344.31
2018-06-16T07:25:11.562Z,98343.52
2018-06-16T07:27:40.455Z,98343.73
2018-06-16T07:30:09.333Z,98337.72
2018-06-16T07:32:38.142Z,98339.42
2018-06-16T07:35:07.151Z,98338.36
2018-06-16T07:37:36.146Z,98333.28
2018-06-16T07:40:06.842Z,98338.17
2018-06-16T07:42:35.601Z,98341.23
2018-06-16T07:45:04.756Z,98336.66
2018-06-16T07:47:34.098Z,98337.59
2018-06-16T07:50:03.216Z,98337.20
2018-06-16T07:52:31.897Z,98336.09
2018-06-16T07:55:00.874Z,98334.39
2018-06-16T07:57:29.665Z,98337.44
2018-06-16T07:59:58.479Z,98327.87
2018-06-16T08:02:27.119Z,98329.45
2018-06-16T08:04:55.811Z,98330.19
2018-06-16T08:07:24.456Z,98325.08
2018-06-16T08:09:53.053Z,98330.48
2018-06-16T08:12:21.998Z,98329.27
2018-06-16T08:14:50.595Z,98330.72
2018-06-16T08:17:19.500Z,98332.71
2018-06-16T08:19:48.183Z,98328.11
2018-06-16T08:22:16.966Z,98328.17
2018-06-16T08:24:45.669Z,98330.55
2018-06-16T08:27:14.989Z,98332.77
2018-06-16T08:29:44.018Z,98329.95
2018-06-16T08:32:12.941Z,98328.58
2018-06-16T08:34:41.708Z,98326.13
2018-06-16T08:37:10.389Z,98326.40
2018-06-16T08:39:38.995Z,98331.89
2018-06-16T08:42:07.876Z,98333.25
2018-06-16T08:44:36.567Z,98329.81
2018-06-16T08:47:05.237Z,98332.87
2018-06-16T08:49:34.101Z,98329.78
2018-06-16T08:52:03.383Z,98325.87
2018-06-16T08:54:32.023Z,98332.99
2018-06-16T08:57:00.680Z,98321.98
2018-06-16T08:59:29.392Z,98322.16
2018-06-16T09:01:58.183Z,98324.59
2018-06-16T09:04:26.807Z,98322.91
2018-06-16T09:06:55.694Z,98322.45
2018-06-16T09:09:24.781Z,98327.03
2018-06-16T09:11:53.778Z,98326.69
2018-06-16T09:14:23.004Z,98322.91
2018-06-16T09:16:51.894Z,98332.55
2018-06-16T09:19:20.863Z,98319.75
2018-06-16T09:21:49.733Z,98324.66
2018-06-16T09:24:18.872Z,98325.91
2018-06-16T09:26:48.360Z,98329.56
2018-06-16T09:29:17.003Z,98329.52
2018-06-16T09:31:46.437Z,98325.41
2018-06-16T09:34:15.324Z,98321.12
2018-06-16T09:36:43.994Z,98317.45
2018-06-16T09:39:13.058Z,98318.83
2018-06-16T09:41:42.023Z,98310.23
2018-06-16T09:44:11.657Z,98313.00
2018-06-16T09:46:40.660Z,98314.20
2018-06-16T09:49:09.641Z,98308.53
2018-06-16T09:51:38.429Z,98315.17
2018-06-16T09:54:07.469Z,98310.24
2018-06-16T09:56:36.881Z,98314.52
2018-06-16T09:59:05.775Z,98311.66
2018-06-16T10:01:34.788Z,98305.78
2018-06-16T10:04:03.597Z,98311.16
2018-06-16T10:06:33.365Z,98308.97
2018-06-16T10:09:02.253Z,98308.92
2018-06-16T10:11:31.078Z,98309.09
2018-06-16T10:14:00.251Z,98308.42
2018-06-16T10:16:29.131Z,98300.34
2018-06-16T10:18:57.887Z,98295.14
2018-06-16T10:21:26.843Z,98296.33
2018-06-16T10:23:56.205Z,98302.43
2018-06-16T10:26:24.923Z,98301.27
2018-06-16T10:28:54.049Z,98296.86
2018-06-16T10:31:24.727Z,98295.36
2018-06-16T10:33:53.753Z,98296.71
2018-06-16T10:36:22.578Z,98292.66
2018-06-16T10:38:52.245Z,98290.07
2018-06-16T10:41:21.552Z,98286.53
2018-06-16T10:43:50.345Z,98283.84
2018-06-16T10:46:19.884Z,98288.83
2018-06-16T10:48:49.345Z,98278.46
2018-06-16T10:51:18.157Z,98284.45
2018-06-16T10:53:47.165Z,98278.09
2018-06-16T10:56:15.834Z,98281.66
2018-06-16T10:58:44.799Z,98274.30
2018-06-16T11:01:13.804Z,98275.81
2018-06-16T11:03:42.680Z,98264.03
2018-06-16T11:06:12.076Z,98268.25
2018-06-16T11:08:40.859Z,98262.38
2018-06-16T11:11:10.818Z,98260.13
2018-06-16T11:13:39.662Z,98258.83
2018-06-16T11:16:08.823Z,98256.92
2018-06-16T11:18:38.189Z,98252.35
2018-06-16T11:21:07.009Z,98253.20
2018-06-16T11:23:36.518Z,98254.66
2018-06-16T11:26:05.803Z,98253.50
2018-06-16T11:28:35.331Z,98255.20
2018-06-16T11:31:05.073Z,98251.62
2018-06-16T11:33:34.018Z,98248.13
2018-06-16T11:36:03.535Z,98239.62
2018-06-16T11:38:32.792Z,98234.49
2018-06-16T11:41:01.743Z,98227.97
2018-06-16T11:43:30.556Z,98226.70
2018-06-16T11:45:59.540Z,98226.05
2018-06-16T11:48:29.404Z,98227.13
2018-06-16T11:50:59.223Z,98223.39
2018-06-16T11:53:28.387Z,98214.22
2018-06-16T11:55:57.698Z,98214.07
2018-06-16T11:58:26.767Z,98205.91
2018-06-16T12:00:57.354Z,98204.16
2018-06-16T12:03:26.234Z,98197.34
2018-06-16T12:06:14.709Z,98192.18
2018-06-16T12:08:44.188Z,98187.08
2018-06-16T12:11:14.177Z,98187.84
2018-06-16T12:13:42.887Z,98186.80
2018-06-16T12:16:11.595Z,98186.68
2018-06-16T12:18:40.299Z,98185.53
2018-06-16T12:21:09.367Z,98181.33
2018-06-16T12:23:38.219Z,98179.75
2018-06-16T12:26:06.971Z,98175.11
2018-06-16T12:28:35.628Z,98172.58
2018-06-16T12:31:04.372Z,98175.10
2018-06-16T12:33:33.285Z,98166.47
2018-06-16T12:36:02.022Z,98173.85
2018-06-16T12:38:30.754Z,98166.33
2018-06-16T12:40:59.446Z,98165.05
2018-06-16T12:43:28.260Z,98169.36
2018-06-16T12:45:57.109Z,98164.86
2018-06-16T12:48:25.879Z,98174.33
2018-06-16T12:50:55.037Z,98162.30
2018-06-16T12:53:23.682Z,98167.15
2018-06-16T12:55:52.517Z,98175.41
2018-06-16T12:58:21.155Z,98176.76
2018-06-16T13:00:50.014Z,98174.47
2018-06-16T13:03:18.805Z,98160.88
2018-06-16T13:05:48.538Z,98158.75
2018-06-16T13:08:17.395Z,98164.14
2018-06-16T13:10:46.229Z,98156.30
2018-06-16T13:13:14.917Z,98163.14
2018-06-16T13:15:43.803Z,98152.61
2018-06-16T13:18:12.496Z,98160.55
2018-06-16T13:20:41.048Z,98157.37
2018-06-16T13:23:09.722Z,98152.12
2018-06-16T13:25:38.565Z,98153.67
2018-06-16T13:28:07.632Z,98146.91
2018-06-16T13:30:36.352Z,98143.81
2018-06-16T13:33:05.007Z,98150.45
2018-06-16T13:35:33.692Z,98150.98
2018-06-16T13:38:02.431Z,98149.77
2018-06-16T13:40:31.133Z,98150.85
2018-06-16T13:42:59.880Z,98149.92
2018-06-16T13:45:28.688Z,98152.85
2018-06-16T13:47:57.558Z,98145.75
2018-06-16T13:50:26.231Z,98144.09
2018-06-16T13:52:54.928Z,98145.94
2018-06-16T13:55:23.661Z,98140.69
2018-06-16T13:57:52.425Z,98140.38
2018-06-16T14:00:21.132Z,98140.19
2018-06-16T14:02:49.768Z,98146.44
2018-06-16T14:05:18.425Z,98144.33
2018-06-16T14:07:47.248Z,98144.55
2018-06-16T14:10:15.865Z,98145.83
2018-06-16T14:12:44.685Z,98142.62
2018-06-16T14:15:13.720Z,98137.80
2018-06-16T14:17:42.404Z,98149.34
2018-06-16T14:20:11.321Z,98141.80
2018-06-16T14:22:40.135Z,98142.48
2018-06-16T14:25:08.930Z,98134.17
2018-06-16T14:27:37.654Z,98142.16
2018-06-16T14:30:07.258Z,98138.94
2018-06-16T14:32:36.146Z,98142.34
2018-06-16T14:35:04.846Z,98138.70
2018-06-16T14:37:33.496Z,98142.16
2018-06-16T14:40:02.145Z,98134.94
2018-06-16T14:42:30.801Z,98135.42
2018-06-16T14:44:59.714Z,98131.53
2018-06-16T14:47:28.371Z,98133.56
2018-06-16T14:49:57.179Z,98128.73
2018-06-16T14:52:26.187Z,98130.69
2018-06-16T14:54:54.840Z,98134.48
2018-06-16T14:57:23.542Z,98132.22
2018-06-16T14:59:52.288Z,98132.05
2018-06-16T15:02:20.835Z,98125.70
2018-06-16T15:04:49.690Z,98128.49
2018-06-16T15:07:18.411Z,98133.03
2018-06-16T15:09:47.053Z,98131.53
2018-06-16T15:12:15.859Z,98125.13
2018-06-16T15:14:44.685Z,98124.81
2018-06-16T15:17:13.417Z,98130.10
2018-06-16T15:19:42.041Z,98121.69
2018-06-16T15:22:10.716Z,98120.55
2018-06-16T15:24:39.348Z,98119.11
2018-06-16T15:27:07.966Z,98116.70
2018-06-16T15:29:36.720Z,98115.41
2018-06-16T15:32:05.437Z,98108.15
2018-06-16T15:34:34.139Z,98104.76
2018-06-16T15:37:02.842Z,98106.36
2018-06-16T15:39:31.422Z,98105.09
2018-06-16T15:42:00.224Z,98105.23
2018-06-16T15:44:28.839Z,98104.20
2018-06-16T15:46:57.631Z,98106.14
2018-06-16T15:49:26.364Z,98102.30
2018-06-16T15:51:55.006Z,98098.26
2018-06-16T15:54:23.766Z,98102.23
2018-06-16T15:56:52.378Z,98099.02
2018-06-16T15:59:21.106Z,98102.45
2018-06-16T16:01:49.788Z,98092.36
2018-06-16T16:04:18.456Z,98095.94
2018-06-16T16:06:47.082Z,98093.46
2018-06-16T16:09:15.878Z,98095.78
2018-06-16T16:11:44.634Z,98091.50
2018-06-16T16:14:13.283Z,98088.48
2018-06-16T16:16:41.945Z,98091.33
2018-06-16T16:19:10.606Z,98093.91
2018-06-16T16:21:39.282Z,98096.87
2018-06-16T16:24:08.230Z,98089.48
2018-06-16T16:26:36.960Z,98089.84
2018-06-16T16:29:05.787Z,98091.19
2018-06-16T16:31:34.417Z,98087.90
2018-06-16T16:34:03.124Z,98089.13
2018-06-16T16:36:31.860Z,98089.22
2018-06-16T16:39:00.591Z,98087.92
2018-06-16T16:41:29.197Z,98086.89
2018-06-16T16:43:57.920Z,98085.97
2018-06-16T16:46:27.724Z,98089.77
2018-06-16T16:48:56.400Z,98088.70
2018-06-16T16:51:25.008Z,98089.25
2018-06-16T16:53:53.709Z,98091.26
2018-06-16T16:56:22.352Z,98099.71
2018-06-16T16:58:51.055Z,98101.14
2018-06-16T17:01:19.645Z,98093.50
2018-06-16T17:03:48.446Z,98098.16
2018-06-16T17:06:17.050Z,98096.56
2018-06-16T17:08:45.723Z,98097.78
2018-06-16T17:11:14.476Z,98097.49
2018-06-16T17:13:43.041Z,98096.16
2018-06-16T17:16:11.681Z,98091.80
2018-06-16T17:18:40.390Z,98090.66
2018-06-16T17:21:09.041Z,98093.16
2018-06-16T17:23:38.778Z,98095.06
2018-06-16T17:26:07.641Z,98089.15
2018-06-16T17:28:36.325Z,98095.70
2018-06-16T17:31:05.078Z,98093.26
2018-06-16T17:33:33.697Z,98091.14
2018-06-16T17:36:02.463Z,98089.98
2018-06-16T17:38:31.123Z,98099.81
2018-06-16T17:40:59.793Z,98098.34
2018-06-16T17:43:28.730Z,98106.16
2018-06-16T17:45:57.404Z,98097.36
2018-06-16T17:48:26.187Z,98106.30
2018-06-16T17:50:54.820Z,98101.98
2018-06-16T17:53:23.609Z,98111.14
2018-06-16T17:55:52.463Z,98110.39
2018-06-16T17:58:21.180Z,98111.21
2018-06-16T18:00:49.856Z,98114.00
2018-06-16T18:03:18.761Z,98106.78
2018-06-16T18:05:47.420Z,98111.66
2018-06-16T18:08:16.142Z,98116.77
2018-06-16T18:10:44.876Z,98120.28
2018-06-16T18:13:13.645Z,98120.43
2018-06-16T18:15:42.557Z,98115.02
2018-06-16T18:18:11.397Z,98116.10
2018-06-16T18:20:40.031Z,98125.19
2018-06-16T18:23:08.900Z,98127.39
2018-06-16T18:25:37.481Z,98125.22
2018-06-16T18:28:06.313Z,98131.88
2018-06-16T18:30:35.257Z,98131.48
2018-06-16T18:33:05.143Z,98134.48
2018-06-16T18:35:33.835Z,98131.48
2018-06-16T18:38:02.553Z,98135.98
2018-06-16T18:40:31.190Z,98128.95
2018-06-16T18:42:59.921Z,98127.49
2018-06-16T18:45:28.640Z,98133.30
2018-06-16T18:47:57.350Z,98137.34
2018-06-16T18:50:26.168Z,98135.09
2018-06-16T18:52:54.994Z,98138.25
2018-06-16T18:55:23.703Z,98139.37
2018-06-16T18:57:52.470Z,98143.96
2018-06-16T19:00:21.131Z,98144.46
2018-06-16T19:02:49.766Z,98143.38
2018-06-16T19:05:18.504Z,98144.58
2018-06-16T19:07:47.221Z,98139.91
2018-06-16T19:10:16.024Z,98148.47
2018-06-16T19:12:44.684Z,98149.64
2018-06-16T19:15:13.399Z,98153.46
2018-06-16T19:17:42.137Z,98152.97
2018-06-16T19:20:10.969Z,98156.48
2018-06-16T19:22:46.984Z,98158.88
2018-06-16T19:25:18.878Z,98159.66
2018-06-16T19:27:50.199Z,98150.56
2018-06-16T19:30:19.045Z,98163.67
2018-06-16T19:32:48.944Z,98163.87
2018-06-16T19:35:17.641Z,98167.06
2018-06-16T19:37:46.288Z,98175.38
2018-06-16T19:40:15.047Z,98180.51
2018-06-16T19:42:43.820Z,98183.17
2018-06-16T19:45:12.765Z,98180.41
2018-06-16T19:47:41.496Z,98188.86
2018-06-16T19:50:10.587Z,98190.11
2018-06-16T19:52:39.787Z,98185.06
2018-06-16T19:55:08.423Z,98189.61
2018-06-16T19:57:37.457Z,98188.34
2018-06-16T20:00:06.653Z,98192.37
2018-06-16T20:02:36.126Z,98196.92
2018-06-16T20:05:05.960Z,98199.05
2018-06-16T20:07:35.274Z,98200.78
2018-06-16T20:10:04.231Z,98206.14
2018-06-16T20:12:33.533Z,98208.06
2018-06-16T20:15:02.699Z,98202.70
2018-06-16T20:17:31.795Z,98202.48
2018-06-16T20:20:00.727Z,98210.05
2018-06-16T20:22:29.434Z,98212.14
2018-06-16T20:24:59.393Z,98211.92
2018-06-16T20:27:28.157Z,98214.20
2018-06-16T20:29:57.418Z,98213.98
2018-06-16T20:32:26.229Z,98217.24
2018-06-16T20:34:55.034Z,98219.29
2018-06-16T20:37:23.925Z,98219.66
2018-06-16T20:39:53.522Z,98221.03
2018-06-16T20:42:25.088Z,98226.52
2018-06-16T20:44:54.076Z,98222.91
2018-06-16T20:47:23.168Z,98230.31
2018-06-16T20:49:52.071Z,98222.76
2018-06-16T20:52:21.202Z,98229.55
2018-06-16T20:54:50.315Z,98227.84
2018-06-16T20:57:19.292Z,98231.59
2018-06-16T20:59:48.833Z,98227.30
2018-06-16T21:02:17.820Z,98231.23
2018-06-16T21:04:47.620Z,98238.88
2018-06-16T21:07:16.677Z,98233.52
2018-06-16T21:09:45.716Z,98237.84
2018-06-16T21:12:14.734Z,98233.24
2018-06-16T21:14:43.697Z,98240.64
2018-06-16T21:17:13.171Z,98233.61
2018-06-16T21:19:43.394Z,98236.75
2018-06-16T21:22:12.360Z,98244.94
2018-06-16T21:24:41.391Z,98242.76
2018-06-16T21:27:10.450Z,98245.77
2018-06-16T21:29:39.741Z,98245.04
2018-06-16T21:32:09.168Z,98237.99
2018-06-16T21:34:38.395Z,98243.36
2018-06-16T21:37:07.536Z,98248.19
2018-06-16T21:39:37.838Z,98252.02
2018-06-16T21:42:06.844Z,98245.93
2018-06-16T21:44:35.616Z,98250.38
2018-06-16T21:47:05.193Z,98249.91
2018-06-16T21:49:34.467Z,98245.33
2018-06-16T21:52:03.769Z,98241.98
2018-06-16T21:54:32.684Z,98252.19
2018-06-16T21:57:01.525Z,98245.65
2018-06-16T21:59:30.336Z,98243.86
2018-06-16T22:01:59.540Z,98247.94
2018-06-16T22:04:28.593Z,98255.66
2018-06-16T22:06:57.524Z,98246.77
2018-06-16T22:09:26.467Z,98251.77
2018-06-16T22:11:55.536Z,98255.41
2018-06-16T22:14:24.194Z,98256.52
2018-06-16T22:16:52.965Z,98249.06
2018-06-16T22:19:22.068Z,98253.95
2018-06-16T22:21:51.380Z,98258.11
2018-06-16T22:24:20.001Z,98258.24
2018-06-16T22:26:49.057Z,98266.73
2018-06-16T22:29:18.458Z,98269.33
2018-06-16T22:31:47.473Z,98265.81
2018-06-16T22:34:16.357Z,98271.03
2018-06-16T22:36:45.379Z,98272.05
2018-06-16T22:39:15.101Z,98269.64
2018-06-16T22:41:44.012Z,98273.64
2018-06-16T22:44:13.022Z,98268.77
2018-06-16T22:46:42.807Z,98277.45
2018-06-16T22:49:11.682Z,98285.72
2018-06-16T22:51:40.627Z,98274.19
2018-06-16T22:54:10.345Z,98280.84
2018-06-16T22:56:39.256Z,98277.69
2018-06-16T22:59:08.859Z,98279.73
2018-06-16T23:01:38.710Z,98278.29
2018-06-16T23:04:07.589Z,98275.72
2018-06-16T23:06:36.674Z,98280.33
2018-06-16T23:09:08.515Z,98279.29
2018-06-16T23:11:38.917Z,98284.63
2018-06-16T23:14:18.329Z,98284.34
2018-06-16T23:16:46.947Z,98286.16
2018-06-16T23:19:16.025Z,98287.16
2018-06-16T23:21:45.204Z,98305.27
2018-06-16T23:24:14.105Z,98299.70
2018-06-16T23:26:44.181Z,98301.45
2018-06-16T23:29:13.119Z,98303.48
2018-06-16T23:31:42.137Z,98305.22
2018-06-16T23:34:11.544Z,98308.37
2018-06-16T23:36:40.432Z,98307.41
2018-06-16T23:39:11.546Z,98306.05
2018-06-16T23:41:40.868Z,98301.84
2018-06-16T23:44:10.029Z,98300.40
2018-06-16T23:46:39.584Z,98309.08
2018-06-16T23:49:09.123Z,98312.52
2018-06-16T23:51:38.257Z,98314.89
2018-06-16T23:54:07.306Z,98316.86
2018-06-16T23:56:36.018Z,98311.52
2018-06-16T23:59:05.202Z,98310.66
